WEATHER DATA

YESTERDAY
Time Temp. Dewp. Hum. Wind dir Wind speed Wind gust Bar. 1h Prec. 24h Prec.
00:18 1.1 1 99 65 1.7 3.3 1016 1.8600 0.5000
00:28 1.2 1.1 99 66 1.4 3.6 1016 1.6270 0.6000
00:38 1.2 1.1 99 72 1.4 2.5 1015.9 1.5100 0.8000
00:48 1.2 1.1 99 60 0.6 1.4 1015.9 1.3940 1.0000
00:58 1.3 1.3 100 76 1.4 2.5 1015.9 1.2780 1.3000
01:08 1.3 1.2 99 90 0.6 1.9 1016 1.1620 1.4000
01:18 1.3 1.2 99 45 0.3 0.8 1016.2 1.0460 1.5000
01:29 1.3 1.2 99 39 0.6 1.4 1015.7 1.1620 1.7000
01:38 1.3 1.2 99 45 0.3 1.4 1015.7 1.0460 1.9000
01:48 1.3 1.2 99 42 0.6 0.8 1015.3 0.9290 2.0000
01:58 1.3 1.2 99 49 0.3 0.8 1015.4 0.8120 2.1000
02:09 1.2 1.2 100 315 0.3 0.6 1015.4 0.6960 2.1000
02:19 1.3 1.3 100 270 0.6 1.4 1015.9 0.6960 2.2000
02:28 1.3 1.3 100 330 0.6 1.4 1015.7 0.8130 2.6000
02:39 1.2 1.1 99 349 0.6 1.4 1015.5 0.8130 2.7000
02:49 1.1 1.1 100 270 0.3 0.8 1015.7 0.9290 2.9000
02:59 1.1 1.1 100 341 0.6 0.8 1015.6 0.9290 3.0000
03:09 1.1 1.1 100 345 0.3 0.6 1015.4 1.1610 3.3000
03:19 1.1 1.1 100 47 0.6 0.8 1014.9 1.2770 3.5000
03:29 1.1 1.1 100 22 0.3 0.8 1014.7 1.1600 3.7000
03:39 1.2 1.2 100 90 0.3 1.4 1014.8 1.1600 3.8000
03:50 1.2 1.2 100 56 0.3 0.8 1014.5 1.0440 4.0000
03:59 1.3 1.3 100 236 0.3 0.8 1014.8 0.6960 4.0000
04:19 1.2 1.2 100 26 0.3 0.6 1014.4 0.8120 4.3000
04:30 1.2 1.2 100 270 0.6 1.7 1014.9 0.4640 4.3000
04:39 1.2 1.2 100 270 0.8 1.9 1015 0.5800 4.5000
04:49 1.1 1.1 100 18 0.3 0.6 1014.7 0.8120 4.8000
05:00 1 1 100 315 0.3 0.6 1014.6 0.6960 4.9000
05:10 0.9 0.9 100 14 0.3 0.6 1014.7 0.8120 5.1000
05:20 0.9 0.9 100 21 0.3 0.6 1014.5 1.1610 5.5000
05:30 0.9 0.9 100 56 0.3 0.8 1014.2 1.0450 5.6000
05:40 0.9 0.9 100 45 0.3 0.8 1014.5 1.1620 5.9000
05:50 0.9 0.9 100 33 0.3 0.6 1014.3 1.5120 6.4000
06:00 0.9 0.9 100 234 0.3 0.6 1014.2 1.5120 6.5000
06:11 0.8 0.8 100 270 0.6 1.4 1014.5 1.5130 6.7000
06:20 0.9 0.9 100 270 0.3 0.8 1014.6 1.6290 7.1000
06:30 0.9 0.9 100 270 0.3 0.6 1014.6 1.7460 7.4000
06:40 0.9 0.9 100 0 0.6 1014.7 1.3960 7.6000
06:51 0.9 0.9 100 270 0.6 1.4 1014.5 1.1630 7.7000
07:00 1 1 100 270 0.3 0.6 1014.9 0.9300 7.7000
07:10 1 1 100 270 0.3 0.6 1014.8 0.9300 7.8000
07:21 1.1 1.1 100 0 0.6 1014.8 0.6970 7.9000
07:31 1.1 1.1 100 270 0.3 0.6 1014.9 0.5800 8.0000
07:41 1.1 1.1 100 270 0.3 0.6 1014.9 0.4640 8.0000
07:51 1.2 1.2 100 270 0.3 0.6 1015.2 0.4640 8.1000
08:01 1.2 1.2 100 270 0.3 0.6 1015.3 0.4640 8.3000
08:11 1.3 1.3 100 270 0.6 0.8 1015.4 0.4640 8.4000
08:21 1.4 1.4 100 270 0.6 0.8 1015.5 0.5800 8.5000
08:31 1.6 1.6 100 270 0.6 1.4 1015.4 0.5800 8.6000
08:41 1.9 1.9 100 45 0.3 0.6 1015.4 0.5800 8.7000
08:51 2.3 2.3 100 270 0.3 1.4 1015.5 0.6960 9.0000
09:01 2.6 2.6 100 246 0.8 1.9 1015.8 1.0450 9.3000
09:12 3 3 100 244 1.4 3.3 1015.7 1.2780 9.7000
09:21 3.3 3.3 100 242 0.8 1.9 1015.8 1.6280 10.1000
09:31 3.6 3.6 100 246 1.9 4.4 1016 1.8610 10.5000
09:42 3.9 3.6 98 246 2.2 4.4 1016.2 2.0950 10.9000
09:52 4.1 3.5 96 247 2.2 4.7 1016.3 2.4450 11.5000
10:01 4.2 3.3 94 252 3.3 5.6 1016.5 2.6780 12.1000
10:11 4.1 2.9 92 250 3.6 6.7 1016.4 2.5610 12.4000
10:22 4.3 3 91 251 2.8 6.1 1016.6 2.4440 12.8000
10:32 4.6 3.1 90 250 2.2 5.8 1016.9 2.3270 13.0000
10:48 4.7 2.7 87 249 3.3 9.7 1016.9 2.4430 13.6000
10:58 4.5 2.4 86 248 3.6 6.7 1016.8 2.2100 14.0000
11:08 4.5 2.5 87 250 2.2 5.6 1016.9 1.8600 14.2000
11:18 4.5 2.7 88 256 3.3 5.8 1017.1 1.8600 14.4000
11:28 4.7 2.6 86 259 3.9 6.4 1017.3 1.6270 14.5000
11:39 4.8 2.8 87 249 2.5 4.7 1017.7 1.3940 14.7000
11:49 4.9 2.8 86 253 3.3 5.6 1017.5 1.0450 14.7000
11:58 4.9 2.6 85 251 2.8 6.9 1017.8 0.6960 14.7000
12:09 5.1 2.8 85 253 2.8 5.6 1017.8 0.4640 14.7000
12:19 5.3 3 85 251 2.8 6.1 1017.9 0.2320 14.7000
12:29 5.6 2.9 83 259 3.3 5.6 1017.8 0.1160 14.7000
12:38 5.7 3 83 250 3.3 6.1 1018 0.0000 14.7000
12:49 6.1 2.9 80 245 2.5 4.7 1017.9 0.0000 14.7000
12:59 6.1 2.6 78 248 3.6 6.4 1018.1 0.0000 14.7000
13:09 6.2 2.5 77 252 4.2 8.1 1018.3 0.0000 14.7000
13:19 6.4 2.8 78 249 2.8 5 1018.3 0.0000 14.7000
13:29 6.8 3.4 79 256 3.3 5 1018.5 0.0000 14.7000
13:39 7 3.1 76 249 2.8 6.7 1018.6 0.0000 14.7000
13:49 7 3.4 78 253 2.5 4.2 1018.7 0.0000 14.7000
14:00 7.2 3.3 76 248 2.8 5.8 1018.9 0.0000 14.7000
14:09 7.3 3.2 75 258 2.8 6.1 1018.8 0.0000 14.7000
14:19 7.1 2.8 74 261 4.2 7.8 1019.2 0.0000 14.7000
14:30 6.9 2.8 75 251 3.6 6.7 1019.3 0.0000 14.7000
14:40 7 2.7 74 251 2.8 4.7 1019.5 0.0000 14.7000
14:49 7.4 2.7 72 245 2.8 5 1019.3 0.0000 14.7000
14:59 7 2.7 74 247 1.9 3.6 1019.3 0.0000 14.7000
15:10 7.1 2.6 73 257 2.8 4.7 1019.4 0.0000 14.7000
15:20 7.3 2.8 73 242 2.5 6.1 1019.4 0.0000 14.7000
15:30 7.4 2.7 72 252 2.5 5 1019.5 0.0000 14.7000
15:40 7.3 1.8 68 254 3.6 7.5 1019.4 0.0000 14.7000
15:52 7.3 1.8 68 253 3.9 9.2 1019.5 0.0000 14.7000
16:03 7.2 1.9 69 252 2.8 7.8 1019.3 0.0000 14.7000
16:13 7.2 1.7 68 247 3.6 9.2 1019.6 0.0000 14.7000
16:23 7.2 1.9 69 252 3.6 6.9 1019.6 0.0000 14.7000
16:33 6.9 1.6 69 251 3.3 6.1 1019.7 0.0000 14.7000
16:43 7.3 2 69 252 2.8 5.8 1019.9 0.0000 14.7000
16:56 7.2 1.3 66 248 3.6 8.1 1019.8 0.0000 14.7000
17:06 7 0.9 65 247 3.3 5.8 1019.9 0.0000 14.7000
17:16 7 1.3 67 249 3.6 6.7 1020 0.0000 14.7000
17:26 7 1.3 67 259 3.3 6.1 1020 0.0000 14.7000
17:37 7.1 1 65 258 3.6 6.4 1020 0.0000 14.7000
17:47 7 0.9 65 247 2.5 5.6 1019.9 0.0000 14.7000
17:56 7 0.9 65 251 3.6 7.5 1020 0.0000 14.7000
18:07 6.9 0.6 64 249 3.3 5.6 1020 0.0000 14.7000
18:17 6.9 0.8 65 258 3.6 6.4 1020.2 0.0000 14.7000
18:27 7.2 1.3 66 251 2.8 5 1020.2 0.0000 14.7000
18:36 7 0.9 65 248 3.3 6.1 1020.4 0.0000 14.7000
18:47 6.8 0.5 64 252 3.3 5.8 1020.4 0.0000 14.7000
18:57 6.6 0.9 67 253 2.8 5.6 1020.3 0.0000 14.7000
19:07 6.7 1 67 251 3.6 6.4 1020.6 0.0000 14.7000
19:17 6.6 0.9 67 243 3.3 6.1 1020.8 0.0000 14.7000
19:27 6.3 0.8 68 255 2.8 4.7 1020.8 0.0000 14.7000
19:32 6.2 0.7 68 255 2.5 4.4 1021.3 0.0000 14.7000
19:55 5.6 0.6 70 247 2.2 4.7 1021.2 0.0000 14.7000
20:05 5.3 0.7 72 247 2.2 4.2 1021.2 0.0000 14.7000
20:15 5 0.6 73 245 1.7 4.4 1021.5 0.0000 14.7000
20:24 4.8 0.6 74 241 0.8 2.2 1021.6 0.0000 14.7000
20:35 4.7 0.5 74 242 1.4 3.6 1021.8 0.0000 14.7000
20:45 4.7 0.5 74 240 1.7 4.4 1021.9 0.0000 14.7000
20:57 4.6 0.6 75 244 1.9 4.4 1021.9 0.0000 14.7000
21:07 4.4 0.5 76 247 1.7 4.4 1021.9 0.0000 14.7000
21:17 4.1 0.4 77 231 0.8 2.2 1021.9 0.0000 14.7000
21:27 3.9 0.4 78 228 0.6 1.7 1022 0.0000 14.7000
21:37 3.5 0 78 0 0.6 1022.2 0.0000 14.7000
21:50 2.9 -0.3 79 252 0.6 2.5 1022.2 0.0000 14.7000
21:59 2.9 0.1 82 238 0.8 2.2 1022.3 0.0000 14.7000
22:09 2.7 -0.2 81 180 0.3 0.6 1022.2 0.0000 14.7000
22:20 2.3 -0.5 81 0 0.3 1022.2 0.0000 14.7000
22:30 1.8 -0.8 82 0 0.3 1022.1 0.0000 14.7000
22:39 1.4 -1 83 0 0.6 1022 0.0000 14.7000
22:50 1 -1.2 84 0 0.6 1022 0.0000 14.7000
23:00 0.8 -1.3 85 0 0.6 1022.1 0.0000 14.7000
23:10 0.6 -1.3 86 0 0.6 1022.2 0.0000 14.7000
23:20 0.5 -1.4 86 0 0.3 1022.2 0.0000 14.7000
23:30 0.4 -1.3 87 0 0.3 1022.2 0.0000 14.7000
23:40 0.3 -1.4 87 0 0.3 1022.2 0.0000 14.7000
23:50 0.2 -1.4 88 0 0.3 1022.3 0.0000

DAY STATISTIC

2021-04-12
TEMPERATURE
AVERAGE
3.7
HIGH
7.4
14:49
LOW
0.2
23:50
PRESSURE
AVERAGE
1017.9
HIGH
1022.3
21:59
LOW
1014.2
05:30
DEWPOINT
AVERAGE
1.4
HIGH
3.6
09:31
LOW
-1.4
23:20
HUMIDITY
AVERAGE
86
HIGH
100
00:58
LOW
64
18:07
WIND SPEED
AVERAGE
1.7
HIGH
4.2
13:09
WIND GUST
AVERAGE
3.4
HIGH
9.7
10:48
WIND DIRECTION
PREVAILING
W
49.3%
N
5.1
NE
10.9
E
2.9
SE
0.0
S
0.7
SW
19.6
W
49.3
NW
2.2
PRECIPITATION
RAIN HOUR
2.7
RAIN DAY
14.7
TEMPERATURE (°C)
LOW
0.2
HIGH
7.4
AVERAGE
3.7
PRESSURE (hpa)
LOW
1014.2
HIGH
1022.3
AVERAGE
1017.9
DEVICE